Time;durP1;ratioP1;P1;durP2;ratioP2;P2;SDS_P1;SDS_P2;PMS_P1;PMS_P2;Temp;Humidity;BMP_temperature;BMP_pressure;BME280_temperature;BME280_humidity;BME280_pressure;Samples;Min_cycle;Max_cycle;Signal;HPM_P1;HPM_P2
2021/06/04 00:01:32;;;;;;;10.93;7.93;;;;;;;9.01;100.00;102680.22;2576880;55;20121;-76
2021/06/04 00:04:00;;;;;;;14.07;8.60;;;;;;;8.99;100.00;102682.09;2581739;55;20526;-76
2021/06/04 00:06:28;;;;;;;9.70;7.93;;;;;;;8.96;100.00;102694.63;2581730;55;20121;-74
2021/06/04 00:08:56;;;;;;;8.27;7.40;;;;;;;8.92;100.00;102683.25;2576519;55;20522;-76
2021/06/04 00:11:28;;;;;;;8.63;7.78;;;;;;;8.86;100.00;102678.16;2581811;55;20481;-74
2021/06/04 00:13:59;;;;;;;9.93;7.95;;;;;;;8.86;100.00;102689.66;2576946;55;20138;-74
2021/06/04 00:16:30;;;;;;;11.43;7.45;;;;;;;8.84;100.00;102680.84;2583157;55;20128;-74
2021/06/04 00:19:01;;;;;;;9.38;7.25;;;;;;;8.86;100.00;102681.66;2581692;55;20117;-76
2021/06/04 00:21:32;;;;;;;7.12;6.40;;;;;;;8.82;100.00;102673.84;2582503;55;20118;-74
2021/06/04 00:24:01;;;;;;;7.87;6.37;;;;;;;8.84;100.00;102685.34;2580829;55;20121;-76
2021/06/04 00:26:31;;;;;;;7.65;5.93;;;;;;;8.78;100.00;102683.75;2581784;55;20125;-76
2021/06/04 00:28:59;;;;;;;6.70;5.30;;;;;;;8.73;100.00;102675.94;2580978;55;20550;-74
2021/06/04 00:31:27;;;;;;;7.03;5.57;;;;;;;8.74;100.00;102698.97;2582079;55;20650;-76
2021/06/04 00:33:56;;;;;;;10.25;6.40;;;;;;;8.61;100.00;102687.00;2582253;55;20109;-74
2021/06/04 00:36:26;;;;;;;8.50;5.80;;;;;;;8.69;100.00;102692.94;2582652;55;20117;-75
2021/06/04 00:38:54;;;;;;;7.45;5.72;;;;;;;8.56;100.00;102678.34;2582621;55;20113;-75
2021/06/04 00:41:27;;;;;;;6.78;5.45;;;;;;;8.37;100.00;102647.03;2581381;55;20108;-74
2021/06/04 00:43:54;;;;;;;8.32;5.43;;;;;;;8.62;100.00;102699.41;2582917;55;20136;-77
2021/06/04 00:46:25;;;;;;;6.55;5.65;;;;;;;8.59;100.00;102694.19;2581459;55;20117;-74
2021/06/04 00:48:54;;;;;;;6.40;5.80;;;;;;;8.60;100.00;102701.22;2583393;55;20131;-76
2021/06/04 00:51:30;;;;;;;7.07;5.55;;;;;;;8.57;100.00;102701.34;2582183;55;20607;-74
2021/06/04 00:54:01;;;;;;;6.43;5.35;;;;;;;8.54;100.00;102704.13;2581106;55;20125;-74
2021/06/04 00:56:30;;;;;;;8.13;5.80;;;;;;;8.47;100.00;102700.78;2580670;55;20182;-74
2021/06/04 00:58:58;;;;;;;7.95;5.95;;;;;;;8.44;100.00;102692.88;2581827;55;20133;-76
2021/06/04 01:01:29;;;;;;;9.90;5.40;;;;;;;8.39;100.00;102687.72;2580431;55;20656;-74
2021/06/04 01:03:59;;;;;;;;;;;;;;;8.75;100.00;102692.72;2581721;55;20124;-74
2021/06/04 01:06:34;;;;;;;7.22;5.20;;;;;;;8.56;100.00;102700.47;2581517;55;20517;-76
2021/06/04 01:09:27;;;;;;;7.60;5.50;;;;;;;8.70;100.00;102680.50;2581859;55;20128;-74
2021/06/04 01:12:14;;;;;;;8.27;5.28;;;;;;;9.03;100.00;102698.81;2580745;55;20167;-74
2021/06/04 01:14:48;;;;;;;6.53;4.95;;;;;;;9.32;100.00;102704.84;2581317;55;20327;-76
2021/06/04 01:17:25;;;;;;;5.43;4.93;;;;;;;9.34;100.00;102695.00;2580197;55;20101;-76
2021/06/04 01:19:59;;;;;;;7.35;5.45;;;;;;;9.29;100.00;102689.00;2579854;55;20131;-74
2021/06/04 01:22:54;;;;;;;6.87;4.60;;;;;;;10.00;100.00;102696.84;2581612;55;20113;-75
2021/06/04 01:25:40;;;;;;;7.35;4.85;;;;;;;10.76;95.80;102698.13;2580910;55;20121;-75
2021/06/04 01:28:16;;;;;;;9.02;5.50;;;;;;;11.13;91.87;102666.22;2580953;55;20156;-75
2021/06/04 01:30:50;;;;;;;5.70;4.80;;;;;;;11.89;90.11;102696.50;2581343;55;20119;-76
2021/06/04 01:33:24;;;;;;;7.75;5.07;;;;;;;12.35;88.01;102687.97;2582414;55;20158;-75
2021/06/04 01:35:56;;;;;;;6.57;4.87;;;;;;;12.85;84.98;102672.00;2580397;55;20139;-75
2021/06/04 01:38:28;;;;;;;7.55;4.95;;;;;;;13.37;83.10;102692.41;2582629;55;20111;-76
2021/06/04 01:41:00;;;;;;;;;;;;;;;14.67;83.59;102702.81;2581098;55;20114;-74
2021/06/04 01:43:32;;;;;;;8.65;5.18;;;;;;;14.32;75.92;102701.31;2581443;55;20527;-75
2021/06/04 01:46:04;;;;;;;6.43;4.90;;;;;;;14.33;75.58;102700.38;2582410;55;20680;-75
2021/06/04 01:48:37;;;;;;;8.73;5.53;;;;;;;13.99;75.94;102694.31;2582426;55;20560;-76
2021/06/04 01:51:10;;;;;;;7.30;4.87;;;;;;;13.87;78.31;102697.72;2581732;55;20117;-74
2021/06/04 01:53:44;;;;;;;7.35;5.93;;;;;;;13.73;79.25;102695.81;2582397;55;20135;-76
2021/06/04 01:56:17;;;;;;;9.10;6.07;;;;;;;13.45;78.71;102683.97;2582388;55;20115;-76
2021/06/04 01:58:51;;;;;;;10.55;6.60;;;;;;;12.96;81.13;102682.16;2579137;55;20109;-75
2021/06/04 02:01:25;;;;;;;9.60;6.12;;;;;;;12.76;83.64;102692.13;2578565;55;20511;-74
2021/06/04 02:03:53;;;;;;;4.97;4.47;;;;;;;12.22;86.09;102651.16;2578613;55;20764;-74
2021/06/04 02:06:22;;;;;;;6.75;4.87;;;;;;;12.29;86.06;102678.47;2573126;55;20653;-75
2021/06/04 02:08:53;;;;;;;7.80;4.90;;;;;;;12.36;87.51;102687.91;2578698;55;20618;-76
2021/06/04 02:11:28;;;;;;;4.97;4.43;;;;;;;12.60;86.50;102674.19;2578316;55;20117;-74
2021/06/04 02:13:57;;;;;;;5.37;4.43;;;;;;;12.66;86.66;102671.19;2578385;55;20139;-74
2021/06/04 02:16:38;;;;;;;6.12;3.90;;;;;;;12.97;85.92;102689.25;2578315;55;20517;-75
2021/06/04 02:19:18;;;;;;;5.03;4.28;;;;;;;13.02;85.96;102682.69;2578223;55;20119;-75
2021/06/04 02:21:56;;;;;;;5.50;4.15;;;;;;;12.98;87.39;102690.97;2578599;55;20119;-75
2021/06/04 02:24:32;;;;;;;5.55;4.35;;;;;;;12.98;87.26;102690.97;2578527;55;20110;-75
2021/06/04 02:27:08;;;;;;;6.07;4.05;;;;;;;13.07;89.10;102693.16;2578688;55;20114;-76
2021/06/04 02:29:42;;;;;;;6.75;4.12;;;;;;;12.96;88.29;102692.88;2578291;55;20128;-75
2021/06/04 02:32:16;;;;;;;4.82;3.95;;;;;;;12.90;88.76;102686.88;2578624;55;20127;-75
2021/06/04 02:34:49;;;;;;;7.80;5.72;;;;;;;12.88;89.69;102685.25;2578350;55;20113;-74
2021/06/04 02:37:23;;;;;;;6.10;3.97;;;;;;;12.91;89.74;102675.22;2578580;55;20121;-75
2021/06/04 02:39:57;;;;;;;6.28;4.47;;;;;;;13.11;88.98;102696.53;2578523;55;20124;-74
2021/06/04 02:42:29;;;;;;;5.65;4.97;;;;;;;13.31;89.08;102695.44;2578213;55;20113;-75
2021/06/04 02:45:01;;;;;;;7.72;4.75;;;;;;;13.30;89.68;102688.34;2578389;55;20120;-75
2021/06/04 02:47:33;;;;;;;6.10;4.60;;;;;;;13.34;88.45;102681.88;2578565;55;20109;-74
2021/06/04 02:50:06;;;;;;;7.97;5.32;;;;;;;13.42;86.88;102671.56;2578369;55;20097;-74
2021/06/04 02:52:36;;;;;;;5.70;3.95;;;;;;;13.63;86.30;102687.44;2578350;55;20613;-75
2021/06/04 02:55:11;;;;;;;5.40;2.97;;;;;;;13.84;82.61;102689.84;2578216;55;20533;-75
2021/06/04 02:57:42;;;;;;;5.15;3.65;;;;;;;13.94;80.56;102691.03;2578276;55;20124;-74
2021/06/04 03:00:17;;;;;;;5.97;3.22;;;;;;;14.12;80.24;102696.25;2578541;55;20131;-75
2021/06/04 03:02:47;;;;;;;5.62;2.97;;;;;;;14.21;78.00;102693.03;2578254;55;20124;-74
2021/06/04 03:05:20;;;;;;;10.57;3.17;;;;;;;14.41;77.68;102709.78;2578252;55;20131;-74
2021/06/04 03:07:51;;;;;;;6.53;3.50;;;;;;;14.41;77.34;102694.53;2578499;55;20117;-74
2021/06/04 03:10:29;;;;;;;7.18;3.50;;;;;;;14.61;77.19;102700.53;2578330;55;20123;-75
2021/06/04 03:12:58;;;;;;;9.07;3.40;;;;;;;14.86;76.09;102699.03;2578155;55;20118;-74
2021/06/04 03:15:31;;;;;;;9.18;3.42;;;;;;;14.99;73.22;102689.25;2578122;55;20132;-74
2021/06/04 03:17:59;;;;;;;8.50;3.30;;;;;;;15.15;75.32;102702.59;2573300;55;20114;-75
2021/06/04 03:20:34;;;;;;;6.07;3.15;;;;;;;15.32;74.01;102700.63;2578943;55;20121;-75
2021/06/04 03:23:03;;;;;;;10.25;3.00;;;;;;;15.40;74.01;102695.63;2578972;55;20654;-75
2021/06/04 03:25:34;;;;;;;7.68;2.87;;;;;;;15.52;71.44;102693.09;2578945;55;20110;-75
2021/06/04 03:28:05;;;;;;;6.97;2.87;;;;;;;15.60;70.57;102681.88;2579080;55;20117;-75
2021/06/04 03:30:36;;;;;;;6.87;2.97;;;;;;;15.78;70.66;102679.78;2578943;55;20157;-74
2021/06/04 03:33:04;;;;;;;12.32;3.08;;;;;;;16.02;70.61;102687.19;2573912;55;20135;-74
2021/06/04 03:35:35;;;;;;;5.97;3.03;;;;;;;16.26;69.94;102690.94;2579384;55;20128;-75
2021/06/04 03:38:05;;;;;;;6.30;2.62;;;;;;;16.34;67.85;102692.25;2578948;55;20125;-75
2021/06/04 03:40:33;;;;;;;4.53;2.90;;;;;;;16.46;67.96;102695.91;2578916;55;20110;-74
2021/06/04 03:43:06;;;;;;;4.78;2.17;;;;;;;16.60;68.93;102692.25;2573891;55;20646;-75
2021/06/04 03:45:37;;;;;;;6.93;2.83;;;;;;;16.84;69.72;102692.38;2579016;55;20512;-74
2021/06/04 03:48:07;;;;;;;10.05;2.95;;;;;;;17.13;66.85;102693.97;2578914;55;20122;-74
2021/06/04 03:50:36;;;;;;;4.43;2.62;;;;;;;17.23;64.54;102697.72;2578834;55;20182;-74
2021/06/04 03:53:05;;;;;;;8.20;2.37;;;;;;;17.32;61.95;102688.13;2579048;55;20139;-75
2021/06/04 03:55:34;;;;;;;5.80;2.62;;;;;;;17.32;61.65;102691.66;2578817;55;20653;-75
2021/06/04 03:58:02;;;;;;;5.45;2.67;;;;;;;17.34;62.20;102680.78;2578736;55;20131;-75
2021/06/04 04:00:37;;;;;;;5.78;2.50;;;;;;;17.57;64.73;102689.00;2578814;55;20397;-76
2021/06/04 04:03:05;;;;;;;4.90;2.20;;;;;;;17.60;62.67;102691.50;2579021;55;20106;-75
2021/06/04 04:05:35;;;;;;;6.93;2.22;;;;;;;17.80;60.67;102687.28;2578657;55;20165;-75
2021/06/04 04:08:04;;;;;;;5.35;2.30;;;;;;;18.00;59.04;102683.09;2578796;55;20132;-75
2021/06/04 04:10:32;;;;;;;14.00;2.42;;;;;;;18.16;58.62;102688.22;2578770;55;20150;-75
2021/06/04 04:12:59;;;;;;;3.72;2.08;;;;;;;18.28;56.80;102686.38;2573672;55;20113;-75
2021/06/04 04:15:28;;;;;;;4.25;2.45;;;;;;;18.30;54.56;102688.97;2578841;55;20131;-75
2021/06/04 04:17:59;;;;;;;7.37;2.10;;;;;;;18.46;55.27;102683.25;2573808;55;20607;-75
2021/06/04 04:20:30;;;;;;;4.65;2.20;;;;;;;18.68;54.25;102687.84;2578785;55;20118;-75
2021/06/04 04:22:59;;;;;;;6.95;2.55;;;;;;;18.69;51.84;102681.44;2579072;55;20129;-75
2021/06/04 04:25:28;;;;;;;21.12;3.00;;;;;;;18.82;51.58;102685.88;2578875;55;20139;-75
2021/06/04 04:27:57;;;;;;;16.50;3.15;;;;;;;18.81;51.43;102676.03;2578633;55;20117;-75
2021/06/04 04:30:25;;;;;;;11.18;2.62;;;;;;;18.73;49.66;102663.97;2578574;55;20143;-75
2021/06/04 04:32:52;;;;;;;13.65;2.70;;;;;;;18.96;52.48;102674.81;2578730;55;20161;-75
2021/06/04 04:35:27;;;;;;;13.23;2.80;;;;;;;19.15;50.84;102673.38;2578709;55;20117;-75
2021/06/04 04:37:54;;;;;;;12.70;3.37;;;;;;;19.05;49.98;102674.13;2578738;55;20504;-75
2021/06/04 04:40:24;;;;;;;13.90;3.08;;;;;;;18.98;48.42;102667.44;2578753;55;20120;-75
2021/06/04 04:42:52;;;;;;;11.57;2.95;;;;;;;18.99;47.96;102670.97;2578667;55;20109;-75
2021/06/04 04:45:21;;;;;;;16.48;2.78;;;;;;;19.02;49.53;102668.94;2578831;55;20578;-75
2021/06/04 04:47:49;;;;;;;12.55;2.80;;;;;;;19.17;49.22;102674.09;2578898;55;20140;-75
2021/06/04 04:50:17;;;;;;;13.98;2.70;;;;;;;19.18;49.28;102665.00;2578859;55;20113;-75
2021/06/04 04:52:47;;;;;;;14.38;2.65;;;;;;;19.29;48.21;102681.19;2578864;55;20118;-75
2021/06/04 04:55:17;;;;;;;12.45;2.55;;;;;;;19.45;48.55;102669.97;2578676;55;20143;-75
2021/06/04 04:57:45;;;;;;;11.27;2.67;;;;;;;19.65;46.45;102669.31;2578517;55;20113;-75
2021/06/04 05:00:16;;;;;;;10.10;2.22;;;;;;;19.88;47.18;102664.66;2578610;55;20113;-75
2021/06/04 05:02:44;;;;;;;6.30;2.05;;;;;;;20.06;46.61;102662.28;2573551;55;20122;-76
2021/06/04 05:05:14;;;;;;;11.40;2.10;;;;;;;20.03;45.79;102662.53;2578614;55;20120;-75
2021/06/04 05:07:41;;;;;;;7.30;2.42;;;;;;;20.15;44.68;102649.78;2578582;55;20528;-75
2021/06/04 05:10:12;;;;;;;8.07;2.10;;;;;;;20.21;43.49;102664.66;2578736;55;20213;-75
2021/06/04 05:12:39;;;;;;;8.48;2.03;;;;;;;20.21;43.32;102659.22;2578729;55;20650;-75
2021/06/04 05:15:12;;;;;;;5.40;1.98;;;;;;;20.21;45.04;102662.81;2578814;55;20607;-75
2021/06/04 05:17:40;;;;;;;8.02;2.00;;;;;;;20.35;42.60;102649.91;2578566;55;20132;-75
2021/06/04 05:20:09;;;;;;;7.15;1.70;;;;;;;20.39;42.65;102662.19;2578715;55;20117;-75
2021/06/04 05:22:38;;;;;;;6.68;2.10;;;;;;;20.34;42.14;102659.88;2578578;55;20119;-75
2021/06/04 05:25:11;;;;;;;5.57;1.95;;;;;;;20.27;41.71;102642.47;2578468;55;20113;-75
2021/06/04 05:27:39;;;;;;;3.28;1.62;;;;;;;20.39;40.43;102654.06;2578640;55;20573;-75
2021/06/04 05:30:09;;;;;;;7.90;1.55;;;;;;;20.72;42.63;102657.53;2578618;55;20118;-76
2021/06/04 05:32:36;;;;;;;8.02;1.75;;;;;;;20.93;40.28;102657.50;2578399;55;20131;-75
2021/06/04 05:35:05;;;;;;;4.37;1.95;;;;;;;20.98;41.85;102652.53;2578445;55;20118;-75
2021/06/04 05:37:33;;;;;;;12.82;2.53;;;;;;;20.84;40.94;102656.47;2575806;55;20121;-75
2021/06/04 05:40:00;;;;;;;6.53;1.70;;;;;;;20.83;41.44;102670.16;2577609;55;20113;-74
2021/06/04 05:42:29;;;;;;;5.78;1.75;;;;;;;20.95;39.59;102663.66;2576972;55;20615;-73
2021/06/04 05:44:57;;;;;;;4.95;1.62;;;;;;;21.04;38.82;102666.53;2575799;55;20528;-77
2021/06/04 05:47:24;;;;;;;9.75;1.87;;;;;;;21.25;42.58;102661.91;2577350;55;20117;-77
2021/06/04 05:49:52;;;;;;;3.90;1.80;;;;;;;21.46;38.35;102666.34;2577907;55;20102;-74
2021/06/04 05:52:19;;;;;;;5.43;1.48;;;;;;;21.48;38.18;102667.06;2576749;55;20135;-72
2021/06/04 05:54:48;;;;;;;5.35;1.60;;;;;;;21.47;37.36;102665.34;2577744;55;20516;-73
2021/06/04 05:57:17;;;;;;;3.28;1.60;;;;;;;21.42;38.74;102667.63;2577068;55;20114;-73
2021/06/04 05:59:46;;;;;;;2.78;1.40;;;;;;;21.65;38.85;102670.09;2575909;55;20128;-72
2021/06/04 06:02:14;;;;;;;4.03;1.50;;;;;;;21.88;37.62;102673.41;2577217;55;20127;-72
2021/06/04 06:04:42;;;;;;;6.45;1.50;;;;;;;22.12;36.79;102671.25;2577230;55;20575;-74
2021/06/04 06:07:09;;;;;;;5.35;1.40;;;;;;;21.98;37.14;102669.81;2576094;55;20098;-74
2021/06/04 06:09:37;;;;;;;4.03;1.50;;;;;;;21.94;34.54;102656.53;2577766;55;20125;-73
2021/06/04 06:12:05;;;;;;;8.55;1.40;;;;;;;22.04;35.82;102667.37;2576619;55;20126;-74
2021/06/04 06:14:33;;;;;;;5.00;1.50;;;;;;;21.89;35.14;102666.12;2576749;55;20121;-74
2021/06/04 06:17:02;;;;;;;5.97;1.60;;;;;;;21.98;35.54;102673.41;2577016;55;20136;-73
2021/06/04 06:19:30;;;;;;;4.15;1.58;;;;;;;21.82;34.71;102674.84;2575786;55;20508;-75
2021/06/04 06:22:00;;;;;;;4.50;1.70;;;;;;;21.98;35.26;102681.56;2576478;55;20121;-74
2021/06/04 06:24:27;;;;;;;2.92;1.12;;;;;;;22.12;35.15;102666.69;2576544;55;20117;-73
2021/06/04 06:26:57;;;;;;;7.12;1.30;;;;;;;22.18;32.67;102660.66;2575013;55;20529;-73
2021/06/04 06:29:27;;;;;;;5.22;1.35;;;;;;;22.43;35.41;102662.88;2576868;55;20625;-72
2021/06/04 06:31:55;;;;;;;1.23;1.00;;;;;;;22.69;32.81;102667.72;2576580;55;20121;-74
2021/06/04 06:34:24;;;;;;;5.10;1.17;;;;;;;22.50;33.08;102658.62;2575749;55;20484;-74
2021/06/04 06:36:52;;;;;;;3.28;0.88;;;;;;;22.56;32.72;102662.59;2571768;55;20164;-74
2021/06/04 06:39:24;;;;;;;7.30;1.35;;;;;;;22.32;33.77;102656.63;2577377;55;20128;-73
2021/06/04 06:41:52;;;;;;;5.65;1.30;;;;;;;22.32;33.59;102653.91;2575589;55;20155;-74
2021/06/04 06:44:20;;;;;;;3.67;1.30;;;;;;;22.38;34.78;102656.03;2577426;55;20527;-72
2021/06/04 06:46:51;;;;;;;7.15;1.58;;;;;;;22.47;31.90;102664.31;2577080;55;20512;-73
2021/06/04 06:49:21;;;;;;;6.05;1.67;;;;;;;22.61;32.43;102665.75;2576162;55;20121;-72
2021/06/04 06:51:50;;;;;;;2.85;1.10;;;;;;;22.54;31.05;102657.28;2577435;55;20697;-73
2021/06/04 06:54:21;;;;;;;8.93;1.50;;;;;;;22.50;31.96;102661.34;2577223;55;20523;-73
2021/06/04 06:56:51;;;;;;;4.05;1.40;;;;;;;22.62;30.64;102654.69;2576670;55;20128;-74
2021/06/04 06:59:20;;;;;;;2.53;1.10;;;;;;;22.79;30.40;102649.50;2577598;55;20143;-73
2021/06/04 07:01:47;;;;;;;5.70;1.67;;;;;;;22.85;28.92;102654.34;2576027;55;20386;-74
2021/06/04 07:04:15;;;;;;;1.90;1.10;;;;;;;22.89;29.40;102653.03;2571653;55;20106;-74
2021/06/04 07:06:43;;;;;;;2.30;1.15;;;;;;;22.96;30.56;102652.44;2577430;55;20117;-74
2021/06/04 07:09:15;;;;;;;5.85;1.48;;;;;;;23.12;28.09;102652.59;2577161;55;20639;-72
2021/06/04 07:11:49;;;;;;;9.15;2.53;;;;;;;23.07;29.73;102631.28;2576667;55;20132;-73
2021/06/04 07:14:17;;;;;;;3.92;1.15;;;;;;;23.40;29.06;102655.34;2577575;55;20110;-73
2021/06/04 07:16:45;;;;;;;2.75;0.80;;;;;;;23.43;27.75;102649.56;2575703;55;20566;-73
2021/06/04 07:19:13;;;;;;;3.33;1.02;;;;;;;23.62;28.57;102654.03;2577627;55;20124;-72
2021/06/04 07:21:43;;;;;;;4.30;0.90;;;;;;;23.59;27.69;102653.47;2577239;55;20117;-74
2021/06/04 07:24:13;;;;;;;3.77;0.93;;;;;;;23.37;27.24;102654.78;2576056;55;20162;-74
2021/06/04 07:26:45;;;;;;;2.28;0.90;;;;;;;23.56;29.20;102651.06;2577344;55;20785;-74
2021/06/04 07:29:13;;;;;;;5.53;1.77;;;;;;;23.67;27.95;102639.94;2577109;55;20474;-74
2021/06/04 07:31:42;;;;;;;7.60;1.27;;;;;;;23.80;28.19;102646.84;2576101;55;20473;-73
2021/06/04 07:34:10;;;;;;;4.05;1.05;;;;;;;23.79;29.31;102642.41;2577576;55;20127;-74
2021/06/04 07:36:41;;;;;;;1.75;0.90;;;;;;;23.72;28.21;102642.19;2577026;55;20121;-74
2021/06/04 07:39:13;;;;;;;4.53;1.43;;;;;;;23.76;30.54;102638.12;2576705;55;20118;-74
2021/06/04 07:41:41;;;;;;;4.00;1.15;;;;;;;23.76;27.67;102639.00;2577322;55;20114;-74
2021/06/04 07:44:10;;;;;;;3.15;1.00;;;;;;;23.63;29.47;102633.06;2576427;55;20132;-74
2021/06/04 07:46:37;;;;;;;3.05;0.80;;;;;;;23.74;28.70;102637.44;2576790;55;20499;-74
2021/06/04 07:49:05;;;;;;;2.47;1.25;;;;;;;23.88;29.49;102636.03;2576816;55;20113;-73
2021/06/04 07:51:36;;;;;;;3.83;1.00;;;;;;;23.80;29.21;102627.78;2576398;55;20140;-73
2021/06/04 07:54:05;;;;;;;3.53;1.45;;;;;;;24.04;29.90;102629.87;2576425;55;20135;-74
2021/06/04 07:56:34;;;;;;;5.97;1.50;;;;;;;24.19;28.69;102624.69;2577312;55;20163;-73
2021/06/04 07:59:01;;;;;;;4.35;1.00;;;;;;;24.09;28.29;102626.69;2575786;55;20131;-73
2021/06/04 08:01:29;;;;;;;6.87;1.30;;;;;;;23.97;28.55;102623.31;2576697;55;20144;-73
2021/06/04 08:03:57;;;;;;;5.37;1.27;;;;;;;24.06;29.51;102629.72;2577015;55;20115;-74
2021/06/04 08:06:25;;;;;;;2.35;1.17;;;;;;;24.07;29.13;102620.53;2576788;55;20517;-73
2021/06/04 08:08:55;;;;;;;1.60;0.70;;;;;;;24.19;28.75;102627.44;2577555;55;20139;-74
2021/06/04 08:11:27;;;;;;;8.20;1.42;;;;;;;24.06;29.04;102627.84;2577775;55;20131;-74
2021/06/04 08:13:57;;;;;;;4.97;1.15;;;;;;;24.00;29.41;102618.41;2577454;55;20134;-73
2021/06/04 08:16:26;;;;;;;4.10;1.05;;;;;;;24.08;29.42;102619.50;2578161;55;20116;-73
2021/06/04 08:18:54;;;;;;;6.53;1.37;;;;;;;24.00;27.92;102612.94;2576784;55;20300;-73
2021/06/04 08:21:26;;;;;;;1.55;1.15;;;;;;;24.12;30.64;102613.59;2577263;55;20128;-74
2021/06/04 08:23:53;;;;;;;3.78;1.20;;;;;;;24.20;29.78;102611.91;2577916;55;20124;-74
2021/06/04 08:26:25;;;;;;;7.32;1.20;;;;;;;24.24;30.91;102614.16;2577356;55;20125;-74
2021/06/04 08:28:53;;;;;;;3.92;1.00;;;;;;;23.95;30.58;102606.25;2577603;55;20131;-73
2021/06/04 08:31:23;;;;;;;3.90;1.55;;;;;;;24.00;33.71;102609.34;2578224;55;20128;-73
2021/06/04 08:33:51;;;;;;;2.78;1.35;;;;;;;24.00;29.50;102601.19;2575767;55;20625;-74
2021/06/04 08:36:21;;;;;;;4.25;1.27;;;;;;;24.04;28.49;102602.63;2573163;55;20120;-73
2021/06/04 08:38:49;;;;;;;5.32;1.27;;;;;;;23.85;30.63;102598.16;2577281;55;20129;-73
2021/06/04 08:41:28;;;;;;;4.62;1.12;;;;;;;23.66;29.77;102594.66;2577082;55;20120;-73
2021/06/04 08:44:08;;;;;;;9.45;1.20;;;;;;;23.57;31.50;102593.69;2577632;55;20121;-74
2021/06/04 08:46:40;;;;;;;3.72;1.15;;;;;;;23.63;32.74;102587.62;2577023;55;20495;-73
2021/06/04 08:49:17;;;;;;;1.23;0.90;;;;;;;23.77;30.69;102577.16;2577271;55;20127;-73
2021/06/04 08:51:59;;;;;;;1.85;1.12;;;;;;;23.80;30.88;102589.63;2577467;55;20113;-73
2021/06/04 08:54:36;;;;;;;3.47;1.00;;;;;;;23.86;29.48;102589.00;2576205;55;20607;-74
2021/06/04 08:57:13;;;;;;;4.32;1.48;;;;;;;23.90;30.02;102587.66;2577355;55;20128;-73
2021/06/04 08:59:41;;;;;;;8.38;1.35;;;;;;;23.93;30.26;102595.50;2577667;55;20511;-73
2021/06/04 09:02:13;;;;;;;4.70;0.98;;;;;;;23.98;29.43;102587.72;2576090;55;20121;-73
2021/06/04 09:04:47;;;;;;;1.42;1.00;;;;;;;23.79;32.55;102588.75;2577974;55;20643;-74
2021/06/04 09:07:18;;;;;;;2.12;1.20;;;;;;;23.77;30.44;102591.66;2577393;55;20630;-73
2021/06/04 09:09:47;;;;;;;;;;;;;;;24.24;29.40;102581.44;2577679;55;20131;-72
2021/06/04 09:12:18;;;;;;;3.58;1.30;;;;;;;24.16;30.43;102575.94;2577311;55;20011;-72
2021/06/04 09:14:47;;;;;;;4.12;1.40;;;;;;;24.40;28.62;102580.69;2576558;55;20626;-75
2021/06/04 09:17:28;;;;;;;7.00;1.20;;;;;;;24.71;29.45;102582.00;2576904;55;20129;-73
2021/06/04 09:20:06;;;;;;;3.65;0.93;;;;;;;24.70;27.95;102574.84;2577851;55;20113;-73
2021/06/04 09:22:38;;;;;;;3.87;1.20;;;;;;;24.42;28.16;102565.00;2576848;55;20121;-73
2021/06/04 09:25:07;;;;;;;3.87;1.20;;;;;;;24.65;31.18;102566.28;2577823;55;20127;-73
2021/06/04 09:27:38;;;;;;;2.12;1.30;;;;;;;24.71;28.08;102571.94;2577221;55;20118;-74
2021/06/04 09:30:17;;;;;;;2.60;1.30;;;;;;;24.63;29.37;102563.72;2576636;55;20132;-74
2021/06/04 09:33:13;;;;;;;3.25;1.15;;;;;;;24.79;30.37;102560.22;2577482;55;20110;-74
2021/06/04 09:35:56;;;;;;;3.92;1.50;;;;;;;24.68;29.85;102560.50;2577945;55;20113;-73
2021/06/04 09:38:32;;;;;;;5.47;1.15;;;;;;;24.63;28.64;102568.31;2577244;55;20112;-72
2021/06/04 09:41:18;;;;;;;2.90;0.98;;;;;;;24.76;27.87;102557.81;2577967;55;20669;-74
2021/06/04 09:43:49;;;;;;;2.62;0.90;;;;;;;24.64;28.66;102553.66;2575680;55;20139;-72
2021/06/04 09:46:26;;;;;;;;;;;;;;;24.91;27.82;102554.47;2578248;55;20106;-73
2021/06/04 09:48:57;;;;;;;2.10;1.10;;;;;;;24.53;29.64;102549.38;2576356;55;20006;-74
2021/06/04 09:51:27;;;;;;;4.15;1.25;;;;;;;24.62;28.78;102542.06;2576906;55;20132;-74
2021/06/04 09:53:55;;;;;;;5.40;1.20;;;;;;;24.76;30.26;102530.53;2577349;55;20117;-73
2021/06/04 09:56:29;;;;;;;2.35;0.90;;;;;;;24.99;27.34;102540.84;2577050;55;20134;-75
2021/06/04 09:59:00;;;;;;;1.23;1.00;;;;;;;24.81;27.27;102540.97;2577265;55;20129;-72
2021/06/04 10:01:31;;;;;;;3.53;1.37;;;;;;;24.51;26.12;102535.88;2577658;55;20546;-73
2021/06/04 10:04:05;;;;;;;6.57;1.20;;;;;;;24.46;29.55;102530.09;2575549;55;20140;-75
2021/06/04 10:06:37;;;;;;;1.65;1.20;;;;;;;24.54;28.57;102527.38;2577940;55;20504;-73
2021/06/04 10:09:19;;;;;;;2.60;1.17;;;;;;;24.70;28.35;102526.59;2577427;55;20119;-73
2021/06/04 10:11:56;;;;;;;5.12;1.40;;;;;;;24.61;29.22;102522.13;2576418;55;20121;-73
2021/06/04 10:14:35;;;;;;;3.05;1.35;;;;;;;24.55;30.59;102520.03;2577896;55;20139;-73
2021/06/04 10:17:36;;;;;;;2.35;1.40;;;;;;;24.63;30.57;102522.81;2576691;55;20537;-73
2021/06/04 10:20:27;;;;;;;3.85;1.90;;;;;;;24.72;29.09;102524.53;2577592;55;20108;-72
2021/06/04 10:23:03;;;;;;;5.05;1.35;;;;;;;24.48;28.51;102516.25;2576610;55;20515;-73
2021/06/04 10:25:42;;;;;;;3.85;1.35;;;;;;;24.41;28.35;102511.47;2576565;55;20114;-72
2021/06/04 10:28:30;;;;;;;5.47;1.60;;;;;;;24.68;30.97;102516.84;2576920;55;20113;-74
2021/06/04 10:35:17;;;;;;;2.78;1.17;;;;;;;25.00;28.00;102507.91;2577939;55;20538;-73
2021/06/04 10:37:51;;;;;;;14.38;7.37;;;;;;;25.03;28.21;102493.06;2576121;55;20113;-73
2021/06/04 10:40:26;;;;;;;7.65;6.00;;;;;;;24.97;27.64;102493.75;2576810;55;20132;-73
2021/06/04 10:43:15;;;;;;;5.12;1.40;;;;;;;25.00;28.80;102498.88;2576944;55;20160;-74
2021/06/04 10:45:48;;;;;;;1.65;1.20;;;;;;;24.91;27.42;102495.28;2577164;55;20497;-74
2021/06/04 10:48:36;;;;;;;2.83;1.87;;;;;;;24.98;27.75;102495.44;2576151;55;20215;-74
2021/06/04 10:51:21;;;;;;;3.67;1.25;;;;;;;25.10;28.33;102483.16;2577424;55;20113;-72
2021/06/04 10:53:56;;;;;;;3.47;1.50;;;;;;;25.15;27.52;102489.00;2576686;55;20515;-73
2021/06/04 10:56:32;;;;;;;3.25;1.20;;;;;;;25.07;28.39;102482.66;2577342;55;20124;-74
2021/06/04 10:59:13;;;;;;;4.30;1.45;;;;;;;25.18;27.06;102484.22;2575968;55;20135;-75
2021/06/04 11:01:46;;;;;;;7.87;2.42;;;;;;;25.09;27.79;102476.00;2576215;55;20120;-74
2021/06/04 11:04:23;;;;;;;2.65;1.17;;;;;;;25.21;29.19;102473.81;2577534;55;20124;-73
2021/06/04 11:07:11;;;;;;;2.25;1.45;;;;;;;25.46;27.74;102479.22;2576020;55;20488;-73
2021/06/04 11:09:55;;;;;;;3.08;0.90;;;;;;;25.46;26.52;102481.13;2576650;55;20118;-74
2021/06/04 11:12:39;;;;;;;6.87;1.20;;;;;;;25.19;26.88;102469.53;2576717;55;20136;-73
2021/06/04 11:15:14;;;;;;;4.53;2.45;;;;;;;25.34;27.62;102477.87;2576683;55;20135;-72
2021/06/04 11:17:45;;;;;;;5.37;1.45;;;;;;;25.37;27.57;102478.41;2576726;55;20125;-74
2021/06/04 11:20:18;;;;;;;2.05;1.08;;;;;;;25.29;28.55;102467.47;2577137;55;20508;-72
2021/06/04 11:22:56;;;;;;;6.28;1.40;;;;;;;25.22;28.91;102470.03;2571473;55;20123;-74
2021/06/04 11:25:33;;;;;;;5.03;1.08;;;;;;;25.13;28.30;102471.06;2577122;55;20121;-74
2021/06/04 11:28:11;;;;;;;2.42;1.35;;;;;;;24.98;27.93;102470.87;2576114;55;20131;-73
2021/06/04 11:30:40;;;;;;;1.83;1.17;;;;;;;25.05;30.53;102460.97;2576461;55;20135;-74
2021/06/04 11:33:14;;;;;;;1.25;0.95;;;;;;;25.43;29.80;102466.75;2576664;55;20486;-73
2021/06/04 11:35:48;;;;;;;3.25;1.15;;;;;;;25.46;27.59;102456.53;2576831;55;20132;-73
2021/06/04 11:38:26;;;;;;;2.25;1.10;;;;;;;25.29;27.49;102457.37;2575877;55;20128;-74
2021/06/04 11:41:12;;;;;;;1.50;0.95;;;;;;;25.25;28.42;102456.03;2577781;55;20121;-74
2021/06/04 11:43:43;;;;;;;1.00;0.82;;;;;;;25.06;30.12;102440.00;2576887;55;20618;-73
2021/06/04 11:46:17;;;;;;;4.28;1.40;;;;;;;25.19;27.78;102442.22;2577789;55;20508;-74
2021/06/04 11:48:56;;;;;;;8.77;1.37;;;;;;;25.38;28.42;102436.41;2576441;55;20147;-73
2021/06/04 11:51:29;;;;;;;4.60;1.27;;;;;;;25.47;26.78;102450.06;2577765;55;20611;-74